sensor_id;sensor_type;location;lat;lon;timestamp;temperature;humidity
34726;DHT22;20951;50.818;4.344;2024-01-30T00:02:11;12.00;99.90
34726;DHT22;20951;50.818;4.344;2024-01-30T00:04:36;11.90;99.90
34726;DHT22;20951;50.818;4.344;2024-01-30T00:07:02;12.00;99.90
34726;DHT22;20951;50.818;4.344;2024-01-30T00:09:28;11.90;99.90
34726;DHT22;20951;50.818;4.344;2024-01-30T00:11:54;11.90;99.90
34726;DHT22;20951;50.818;4.344;2024-01-30T00:14:20;11.90;99.90
34726;DHT22;20951;50.818;4.344;2024-01-30T00:16:46;11.90;99.90
34726;DHT22;20951;50.818;4.344;2024-01-30T00:19:12;12.00;99.90
34726;DHT22;20951;50.818;4.344;2024-01-30T00:21:38;12.10;99.90
34726;DHT22;20951;50.818;4.344;2024-01-30T00:24:04;12.10;99.90
34726;DHT22;20951;50.818;4.344;2024-01-30T00:26:29;12.10;99.90
34726;DHT22;20951;50.818;4.344;2024-01-30T00:28:55;12.10;99.90
34726;DHT22;20951;50.818;4.344;2024-01-30T00:31:21;12.10;99.90
34726;DHT22;20951;50.818;4.344;2024-01-30T00:33:47;12.10;99.90
34726;DHT22;20951;50.818;4.344;2024-01-30T00:36:13;12.10;99.90
34726;DHT22;20951;50.818;4.344;2024-01-30T00:38:39;12.10;99.90
34726;DHT22;20951;50.818;4.344;2024-01-30T00:41:08;12.10;99.90
34726;DHT22;20951;50.818;4.344;2024-01-30T00:43:33;12.10;99.90
34726;DHT22;20951;50.818;4.344;2024-01-30T00:45:59;12.20;99.90
34726;DHT22;20951;50.818;4.344;2024-01-30T00:48:25;12.20;99.90
34726;DHT22;20951;50.818;4.344;2024-01-30T00:50:51;12.20;99.90
34726;DHT22;20951;50.818;4.344;2024-01-30T00:53:17;12.10;99.90
34726;DHT22;20951;50.818;4.344;2024-01-30T00:55:43;12.20;99.90
34726;DHT22;20951;50.818;4.344;2024-01-30T00:58:09;12.20;99.90
34726;DHT22;20951;50.818;4.344;2024-01-30T01:00:34;12.10;99.90
34726;DHT22;20951;50.818;4.344;2024-01-30T01:03:01;12.00;99.90
34726;DHT22;20951;50.818;4.344;2024-01-30T01:05:26;12.10;99.90
34726;DHT22;20951;50.818;4.344;2024-01-30T01:07:52;12.20;99.90
34726;DHT22;20951;50.818;4.344;2024-01-30T01:10:18;12.20;99.90
34726;DHT22;20951;50.818;4.344;2024-01-30T01:12:45;12.30;99.90
34726;DHT22;20951;50.818;4.344;2024-01-30T01:15:11;12.30;99.90
34726;DHT22;20951;50.818;4.344;2024-01-30T01:17:39;12.40;99.90
34726;DHT22;20951;50.818;4.344;2024-01-30T01:20:06;12.40;99.90
34726;DHT22;20951;50.818;4.344;2024-01-30T01:22:32;12.40;99.90
34726;DHT22;20951;50.818;4.344;2024-01-30T01:25:00;12.30;99.90
34726;DHT22;20951;50.818;4.344;2024-01-30T01:27:26;12.30;99.90
34726;DHT22;20951;50.818;4.344;2024-01-30T01:29:52;12.30;99.90
34726;DHT22;20951;50.818;4.344;2024-01-30T01:32:18;12.30;99.90
34726;DHT22;20951;50.818;4.344;2024-01-30T01:34:44;12.30;99.90
34726;DHT22;20951;50.818;4.344;2024-01-30T01:37:10;12.40;99.90
34726;DHT22;20951;50.818;4.344;2024-01-30T01:39:36;12.50;99.90
34726;DHT22;20951;50.818;4.344;2024-01-30T01:42:02;12.50;99.90
34726;DHT22;20951;50.818;4.344;2024-01-30T01:44:28;12.50;99.90
34726;DHT22;20951;50.818;4.344;2024-01-30T01:46:54;12.50;99.90
34726;DHT22;20951;50.818;4.344;2024-01-30T01:49:25;12.50;99.90
34726;DHT22;20951;50.818;4.344;2024-01-30T01:51:54;12.50;99.90
34726;DHT22;20951;50.818;4.344;2024-01-30T01:54:23;12.50;99.90
34726;DHT22;20951;50.818;4.344;2024-01-30T01:56:50;12.50;99.90
34726;DHT22;20951;50.818;4.344;2024-01-30T01:59:17;12.50;99.90
34726;DHT22;20951;50.818;4.344;2024-01-30T02:01:43;12.50;99.90
34726;DHT22;20951;50.818;4.344;2024-01-30T02:04:11;12.50;99.90
34726;DHT22;20951;50.818;4.344;2024-01-30T02:06:37;12.50;99.90
34726;DHT22;20951;50.818;4.344;2024-01-30T02:09:04;12.50;99.90
34726;DHT22;20951;50.818;4.344;2024-01-30T02:11:30;12.50;99.90
34726;DHT22;20951;50.818;4.344;2024-01-30T02:13:57;12.50;99.90
34726;DHT22;20951;50.818;4.344;2024-01-30T02:16:23;12.60;99.90
34726;DHT22;20951;50.818;4.344;2024-01-30T02:18:49;12.50;99.90
34726;DHT22;20951;50.818;4.344;2024-01-30T02:21:16;12.40;99.90
34726;DHT22;20951;50.818;4.344;2024-01-30T02:23:43;12.40;99.90
34726;DHT22;20951;50.818;4.344;2024-01-30T02:26:10;12.40;99.90
34726;DHT22;20951;50.818;4.344;2024-01-30T02:28:37;12.40;99.90
34726;DHT22;20951;50.818;4.344;2024-01-30T02:31:03;12.40;99.90
34726;DHT22;20951;50.818;4.344;2024-01-30T02:33:29;12.40;99.90
34726;DHT22;20951;50.818;4.344;2024-01-30T02:35:55;12.50;99.90
34726;DHT22;20951;50.818;4.344;2024-01-30T02:38:21;12.60;99.90
34726;DHT22;20951;50.818;4.344;2024-01-30T02:40:48;12.60;99.90
34726;DHT22;20951;50.818;4.344;2024-01-30T02:43:15;12.50;99.90
34726;DHT22;20951;50.818;4.344;2024-01-30T02:45:41;12.40;99.90
34726;DHT22;20951;50.818;4.344;2024-01-30T02:48:07;12.40;99.90
34726;DHT22;20951;50.818;4.344;2024-01-30T02:50:32;12.40;99.90
34726;DHT22;20951;50.818;4.344;2024-01-30T02:52:58;12.40;99.90
34726;DHT22;20951;50.818;4.344;2024-01-30T02:55:24;12.50;99.90
34726;DHT22;20951;50.818;4.344;2024-01-30T02:57:50;12.40;99.90
34726;DHT22;20951;50.818;4.344;2024-01-30T03:00:16;12.40;99.90
34726;DHT22;20951;50.818;4.344;2024-01-30T03:02:41;12.50;99.90
34726;DHT22;20951;50.818;4.344;2024-01-30T03:05:08;12.40;99.90
34726;DHT22;20951;50.818;4.344;2024-01-30T03:07:34;12.30;99.90
34726;DHT22;20951;50.818;4.344;2024-01-30T03:10:00;12.40;99.90
34726;DHT22;20951;50.818;4.344;2024-01-30T03:12:26;12.50;99.90
34726;DHT22;20951;50.818;4.344;2024-01-30T03:14:51;12.50;99.90
34726;DHT22;20951;50.818;4.344;2024-01-30T03:17:18;12.40;99.90
34726;DHT22;20951;50.818;4.344;2024-01-30T03:19:43;12.30;99.90
34726;DHT22;20951;50.818;4.344;2024-01-30T03:22:09;12.40;99.90
34726;DHT22;20951;50.818;4.344;2024-01-30T03:24:35;12.50;99.90
34726;DHT22;20951;50.818;4.344;2024-01-30T03:27:01;12.60;99.90
34726;DHT22;20951;50.818;4.344;2024-01-30T03:29:27;12.50;99.90
34726;DHT22;20951;50.818;4.344;2024-01-30T03:31:52;12.50;99.90
34726;DHT22;20951;50.818;4.344;2024-01-30T03:34:18;12.60;99.90
34726;DHT22;20951;50.818;4.344;2024-01-30T03:36:44;12.50;99.90
34726;DHT22;20951;50.818;4.344;2024-01-30T03:39:10;12.50;99.90
34726;DHT22;20951;50.818;4.344;2024-01-30T03:41:35;12.60;99.90
34726;DHT22;20951;50.818;4.344;2024-01-30T03:44:02;12.50;99.90
34726;DHT22;20951;50.818;4.344;2024-01-30T03:46:28;12.40;99.90
34726;DHT22;20951;50.818;4.344;2024-01-30T03:48:53;12.50;99.90
34726;DHT22;20951;50.818;4.344;2024-01-30T03:51:19;12.50;99.90
34726;DHT22;20951;50.818;4.344;2024-01-30T03:53:45;12.50;99.90
34726;DHT22;20951;50.818;4.344;2024-01-30T03:56:14;12.60;99.90
34726;DHT22;20951;50.818;4.344;2024-01-30T03:58:40;12.60;99.90
34726;DHT22;20951;50.818;4.344;2024-01-30T04:01:06;12.60;99.90
34726;DHT22;20951;50.818;4.344;2024-01-30T04:03:31;12.50;99.90
34726;DHT22;20951;50.818;4.344;2024-01-30T04:05:57;12.50;99.90
34726;DHT22;20951;50.818;4.344;2024-01-30T04:08:23;12.40;99.90
34726;DHT22;20951;50.818;4.344;2024-01-30T04:10:49;12.40;99.90
34726;DHT22;20951;50.818;4.344;2024-01-30T04:13:14;12.30;99.90
34726;DHT22;20951;50.818;4.344;2024-01-30T04:15:40;12.40;99.90
34726;DHT22;20951;50.818;4.344;2024-01-30T04:18:06;12.40;99.90
34726;DHT22;20951;50.818;4.344;2024-01-30T04:20:32;12.40;99.90
34726;DHT22;20951;50.818;4.344;2024-01-30T04:22:57;12.50;99.90
34726;DHT22;20951;50.818;4.344;2024-01-30T04:25:23;12.50;99.90
34726;DHT22;20951;50.818;4.344;2024-01-30T04:27:49;12.40;99.90
34726;DHT22;20951;50.818;4.344;2024-01-30T04:30:15;12.30;99.90
34726;DHT22;20951;50.818;4.344;2024-01-30T04:32:41;12.40;99.90
34726;DHT22;20951;50.818;4.344;2024-01-30T04:35:07;12.40;99.90
34726;DHT22;20951;50.818;4.344;2024-01-30T04:37:33;12.40;99.90
34726;DHT22;20951;50.818;4.344;2024-01-30T04:39:59;12.50;99.90
34726;DHT22;20951;50.818;4.344;2024-01-30T04:42:24;12.40;99.90
34726;DHT22;20951;50.818;4.344;2024-01-30T04:44:50;12.20;99.90
34726;DHT22;20951;50.818;4.344;2024-01-30T04:47:16;12.30;99.90
34726;DHT22;20951;50.818;4.344;2024-01-30T04:49:42;12.30;99.90
34726;DHT22;20951;50.818;4.344;2024-01-30T04:52:08;12.30;99.90
34726;DHT22;20951;50.818;4.344;2024-01-30T04:54:35;12.20;99.90
34726;DHT22;20951;50.818;4.344;2024-01-30T04:57:01;12.40;99.90
34726;DHT22;20951;50.818;4.344;2024-01-30T04:59:27;12.40;99.90
34726;DHT22;20951;50.818;4.344;2024-01-30T05:01:53;12.30;99.90
34726;DHT22;20951;50.818;4.344;2024-01-30T05:04:19;12.30;99.90
34726;DHT22;20951;50.818;4.344;2024-01-30T05:06:45;12.30;99.90
34726;DHT22;20951;50.818;4.344;2024-01-30T05:09:10;12.20;99.90
34726;DHT22;20951;50.818;4.344;2024-01-30T05:11:37;12.20;99.90
34726;DHT22;20951;50.818;4.344;2024-01-30T05:14:04;12.20;99.90
34726;DHT22;20951;50.818;4.344;2024-01-30T05:16:30;12.40;99.90
34726;DHT22;20951;50.818;4.344;2024-01-30T05:18:56;12.50;99.90
34726;DHT22;20951;50.818;4.344;2024-01-30T05:21:22;12.50;99.90
34726;DHT22;20951;50.818;4.344;2024-01-30T05:23:47;12.50;99.90
34726;DHT22;20951;50.818;4.344;2024-01-30T05:26:13;12.30;99.90
34726;DHT22;20951;50.818;4.344;2024-01-30T05:28:39;12.30;99.90
34726;DHT22;20951;50.818;4.344;2024-01-30T05:31:05;12.30;99.90
34726;DHT22;20951;50.818;4.344;2024-01-30T05:33:30;12.20;99.90
34726;DHT22;20951;50.818;4.344;2024-01-30T05:35:56;12.30;99.90
34726;DHT22;20951;50.818;4.344;2024-01-30T05:38:22;12.20;99.90
34726;DHT22;20951;50.818;4.344;2024-01-30T05:40:48;12.20;99.90
34726;DHT22;20951;50.818;4.344;2024-01-30T05:43:13;12.20;99.90
34726;DHT22;20951;50.818;4.344;2024-01-30T05:45:39;12.20;99.90
34726;DHT22;20951;50.818;4.344;2024-01-30T05:48:05;12.20;99.90
34726;DHT22;20951;50.818;4.344;2024-01-30T05:50:31;12.20;99.90
34726;DHT22;20951;50.818;4.344;2024-01-30T05:52:57;12.20;99.90
34726;DHT22;20951;50.818;4.344;2024-01-30T05:55:23;12.20;99.90
34726;DHT22;20951;50.818;4.344;2024-01-30T05:57:48;12.20;99.90
34726;DHT22;20951;50.818;4.344;2024-01-30T06:00:14;12.20;99.90
34726;DHT22;20951;50.818;4.344;2024-01-30T06:02:40;12.00;99.90
34726;DHT22;20951;50.818;4.344;2024-01-30T06:05:06;12.00;99.90
34726;DHT22;20951;50.818;4.344;2024-01-30T06:07:32;11.90;99.90
34726;DHT22;20951;50.818;4.344;2024-01-30T06:09:58;11.90;99.90
34726;DHT22;20951;50.818;4.344;2024-01-30T06:12:27;11.90;99.90
34726;DHT22;20951;50.818;4.344;2024-01-30T06:14:53;11.90;99.90
34726;DHT22;20951;50.818;4.344;2024-01-30T06:17:22;12.00;99.90
34726;DHT22;20951;50.818;4.344;2024-01-30T06:19:48;12.00;99.90
34726;DHT22;20951;50.818;4.344;2024-01-30T06:22:14;11.90;99.90
34726;DHT22;20951;50.818;4.344;2024-01-30T06:24:40;11.90;99.90
34726;DHT22;20951;50.818;4.344;2024-01-30T06:27:05;11.90;99.90
34726;DHT22;20951;50.818;4.344;2024-01-30T06:29:31;11.90;99.90
34726;DHT22;20951;50.818;4.344;2024-01-30T06:31:57;11.90;99.90
34726;DHT22;20951;50.818;4.344;2024-01-30T06:34:23;11.90;99.90
34726;DHT22;20951;50.818;4.344;2024-01-30T06:36:48;11.90;99.90
34726;DHT22;20951;50.818;4.344;2024-01-30T06:39:14;11.80;99.90
34726;DHT22;20951;50.818;4.344;2024-01-30T06:41:40;11.90;99.90
34726;DHT22;20951;50.818;4.344;2024-01-30T06:44:06;12.00;99.90
34726;DHT22;20951;50.818;4.344;2024-01-30T06:46:33;12.00;99.90
34726;DHT22;20951;50.818;4.344;2024-01-30T06:48:59;11.90;99.90
34726;DHT22;20951;50.818;4.344;2024-01-30T06:51:25;11.90;99.90
34726;DHT22;20951;50.818;4.344;2024-01-30T06:53:51;11.90;99.90
34726;DHT22;20951;50.818;4.344;2024-01-30T06:56:17;11.90;99.90
34726;DHT22;20951;50.818;4.344;2024-01-30T06:58:47;11.90;99.90
34726;DHT22;20951;50.818;4.344;2024-01-30T07:01:13;11.80;99.90
34726;DHT22;20951;50.818;4.344;2024-01-30T07:03:39;11.80;99.90
34726;DHT22;20951;50.818;4.344;2024-01-30T07:06:05;11.80;99.90
34726;DHT22;20951;50.818;4.344;2024-01-30T07:08:31;11.80;99.90
34726;DHT22;20951;50.818;4.344;2024-01-30T07:10:57;11.90;99.90
34726;DHT22;20951;50.818;4.344;2024-01-30T07:13:22;11.80;99.90
34726;DHT22;20951;50.818;4.344;2024-01-30T07:15:48;11.90;99.90
34726;DHT22;20951;50.818;4.344;2024-01-30T07:18:14;11.90;99.90
34726;DHT22;20951;50.818;4.344;2024-01-30T07:20:40;12.00;99.90
34726;DHT22;20951;50.818;4.344;2024-01-30T07:23:15;12.10;99.90
34726;DHT22;20951;50.818;4.344;2024-01-30T07:25:46;12.10;99.90
34726;DHT22;20951;50.818;4.344;2024-01-30T07:28:14;12.00;99.90
34726;DHT22;20951;50.818;4.344;2024-01-30T07:30:42;12.10;99.90
34726;DHT22;20951;50.818;4.344;2024-01-30T07:33:08;12.20;99.90
34726;DHT22;20951;50.818;4.344;2024-01-30T07:35:35;12.20;99.90
34726;DHT22;20951;50.818;4.344;2024-01-30T07:38:01;12.20;99.90
34726;DHT22;20951;50.818;4.344;2024-01-30T07:40:27;12.20;99.90
34726;DHT22;20951;50.818;4.344;2024-01-30T07:42:56;12.20;99.90
34726;DHT22;20951;50.818;4.344;2024-01-30T07:45:21;12.20;99.90
34726;DHT22;20951;50.818;4.344;2024-01-30T07:47:49;12.20;99.90
34726;DHT22;20951;50.818;4.344;2024-01-30T07:50:16;12.20;99.90
34726;DHT22;20951;50.818;4.344;2024-01-30T07:52:43;12.30;99.90
34726;DHT22;20951;50.818;4.344;2024-01-30T07:55:09;12.20;99.90
34726;DHT22;20951;50.818;4.344;2024-01-30T07:57:35;12.30;99.90
34726;DHT22;20951;50.818;4.344;2024-01-30T08:00:01;12.30;99.90
34726;DHT22;20951;50.818;4.344;2024-01-30T08:02:28;12.20;99.90
34726;DHT22;20951;50.818;4.344;2024-01-30T08:04:54;12.10;99.90
34726;DHT22;20951;50.818;4.344;2024-01-30T08:07:19;12.10;99.90
34726;DHT22;20951;50.818;4.344;2024-01-30T08:09:47;12.20;99.90
34726;DHT22;20951;50.818;4.344;2024-01-30T08:12:13;12.10;99.90
34726;DHT22;20951;50.818;4.344;2024-01-30T08:14:39;11.90;99.90
34726;DHT22;20951;50.818;4.344;2024-01-30T08:17:06;11.90;99.90
34726;DHT22;20951;50.818;4.344;2024-01-30T08:19:33;11.90;99.90
34726;DHT22;20951;50.818;4.344;2024-01-30T08:21:59;11.90;99.90
34726;DHT22;20951;50.818;4.344;2024-01-30T08:24:25;12.00;99.90
34726;DHT22;20951;50.818;4.344;2024-01-30T08:26:50;12.00;99.90
34726;DHT22;20951;50.818;4.344;2024-01-30T08:29:16;12.00;99.90
34726;DHT22;20951;50.818;4.344;2024-01-30T08:31:42;12.10;99.90
34726;DHT22;20951;50.818;4.344;2024-01-30T08:34:08;12.20;99.90
34726;DHT22;20951;50.818;4.344;2024-01-30T08:36:34;12.10;99.90
34726;DHT22;20951;50.818;4.344;2024-01-30T08:39:00;12.20;99.90
34726;DHT22;20951;50.818;4.344;2024-01-30T08:41:25;12.20;99.90
34726;DHT22;20951;50.818;4.344;2024-01-30T08:43:52;12.10;99.90
34726;DHT22;20951;50.818;4.344;2024-01-30T08:46:20;12.10;99.90
34726;DHT22;20951;50.818;4.344;2024-01-30T08:48:47;12.10;99.90
34726;DHT22;20951;50.818;4.344;2024-01-30T08:51:13;12.10;99.90
34726;DHT22;20951;50.818;4.344;2024-01-30T08:53:40;12.20;99.90
34726;DHT22;20951;50.818;4.344;2024-01-30T08:56:06;12.30;99.90
34726;DHT22;20951;50.818;4.344;2024-01-30T08:58:34;12.30;99.90
34726;DHT22;20951;50.818;4.344;2024-01-30T09:00:59;12.30;99.90
34726;DHT22;20951;50.818;4.344;2024-01-30T09:03:25;12.30;99.90
34726;DHT22;20951;50.818;4.344;2024-01-30T09:05:51;12.40;99.90
34726;DHT22;20951;50.818;4.344;2024-01-30T09:08:17;12.30;99.90
34726;DHT22;20951;50.818;4.344;2024-01-30T09:10:43;12.30;99.90
34726;DHT22;20951;50.818;4.344;2024-01-30T09:13:09;12.50;99.90
34726;DHT22;20951;50.818;4.344;2024-01-30T09:15:35;12.60;99.90
34726;DHT22;20951;50.818;4.344;2024-01-30T09:18:01;12.60;99.90
34726;DHT22;20951;50.818;4.344;2024-01-30T09:20:27;12.50;99.90
34726;DHT22;20951;50.818;4.344;2024-01-30T09:22:54;12.50;99.90
34726;DHT22;20951;50.818;4.344;2024-01-30T09:25:20;12.40;99.90
34726;DHT22;20951;50.818;4.344;2024-01-30T09:27:46;12.30;99.90
34726;DHT22;20951;50.818;4.344;2024-01-30T09:30:12;12.50;99.90
34726;DHT22;20951;50.818;4.344;2024-01-30T09:32:39;12.50;99.90
34726;DHT22;20951;50.818;4.344;2024-01-30T09:35:05;12.50;99.90
34726;DHT22;20951;50.818;4.344;2024-01-30T09:37:31;12.30;99.90
34726;DHT22;20951;50.818;4.344;2024-01-30T09:39:57;12.30;99.90
34726;DHT22;20951;50.818;4.344;2024-01-30T09:42:35;12.40;99.90
34726;DHT22;20951;50.818;4.344;2024-01-30T09:45:02;12.50;99.90
34726;DHT22;20951;50.818;4.344;2024-01-30T09:47:41;12.60;99.90
34726;DHT22;20951;50.818;4.344;2024-01-30T09:50:11;12.40;99.90
34726;DHT22;20951;50.818;4.344;2024-01-30T09:52:38;12.20;99.90
34726;DHT22;20951;50.818;4.344;2024-01-30T09:55:04;12.30;99.90
34726;DHT22;20951;50.818;4.344;2024-01-30T09:57:31;12.40;99.90
34726;DHT22;20951;50.818;4.344;2024-01-30T09:59:58;12.50;99.90
34726;DHT22;20951;50.818;4.344;2024-01-30T10:02:24;12.40;99.90
34726;DHT22;20951;50.818;4.344;2024-01-30T10:04:51;12.50;99.90
34726;DHT22;20951;50.818;4.344;2024-01-30T10:07:20;12.40;99.90
34726;DHT22;20951;50.818;4.344;2024-01-30T10:09:46;12.50;99.90
34726;DHT22;20951;50.818;4.344;2024-01-30T10:12:12;12.50;99.90
34726;DHT22;20951;50.818;4.344;2024-01-30T10:14:42;12.30;99.90
34726;DHT22;20951;50.818;4.344;2024-01-30T10:17:12;12.30;99.90
34726;DHT22;20951;50.818;4.344;2024-01-30T10:19:41;12.40;99.90
34726;DHT22;20951;50.818;4.344;2024-01-30T10:22:10;12.50;99.90
34726;DHT22;20951;50.818;4.344;2024-01-30T10:24:36;12.50;99.90
34726;DHT22;20951;50.818;4.344;2024-01-30T10:27:02;12.30;99.90
34726;DHT22;20951;50.818;4.344;2024-01-30T10:29:28;12.20;99.90
34726;DHT22;20951;50.818;4.344;2024-01-30T10:32:02;12.40;99.90
34726;DHT22;20951;50.818;4.344;2024-01-30T10:34:28;12.30;99.90
34726;DHT22;20951;50.818;4.344;2024-01-30T10:37:08;12.00;99.90
34726;DHT22;20951;50.818;4.344;2024-01-30T10:39:53;12.00;99.90
34726;DHT22;20951;50.818;4.344;2024-01-30T10:42:26;12.10;99.90
34726;DHT22;20951;50.818;4.344;2024-01-30T10:44:57;11.90;99.90
34726;DHT22;20951;50.818;4.344;2024-01-30T10:47:29;11.80;99.90
34726;DHT22;20951;50.818;4.344;2024-01-30T10:49:56;11.80;99.90
34726;DHT22;20951;50.818;4.344;2024-01-30T10:52:23;11.80;99.90
34726;DHT22;20951;50.818;4.344;2024-01-30T10:54:56;11.90;99.90
34726;DHT22;20951;50.818;4.344;2024-01-30T10:57:26;12.00;99.90
34726;DHT22;20951;50.818;4.344;2024-01-30T11:00:00;11.70;99.90
34726;DHT22;20951;50.818;4.344;2024-01-30T11:02:26;11.70;99.90
34726;DHT22;20951;50.818;4.344;2024-01-30T11:04:58;11.80;99.90
34726;DHT22;20951;50.818;4.344;2024-01-30T11:07:29;11.90;99.90
34726;DHT22;20951;50.818;4.344;2024-01-30T11:12:38;11.70;99.90
34726;DHT22;20951;50.818;4.344;2024-01-30T11:15:16;11.60;99.90
34726;DHT22;20951;50.818;4.344;2024-01-30T11:20:22;11.50;99.90
34726;DHT22;20951;50.818;4.344;2024-01-30T11:22:56;11.60;99.90
34726;DHT22;20951;50.818;4.344;2024-01-30T11:25:23;11.60;99.90
34726;DHT22;20951;50.818;4.344;2024-01-30T11:27:51;11.50;99.90
34726;DHT22;20951;50.818;4.344;2024-01-30T11:30:30;11.50;99.90
34726;DHT22;20951;50.818;4.344;2024-01-30T11:33:05;11.50;99.90
34726;DHT22;20951;50.818;4.344;2024-01-30T11:35:44;11.40;99.90
34726;DHT22;20951;50.818;4.344;2024-01-30T11:38:11;11.30;99.90
34726;DHT22;20951;50.818;4.344;2024-01-30T11:40:40;11.30;99.90
34726;DHT22;20951;50.818;4.344;2024-01-30T11:43:07;11.50;99.90
34726;DHT22;20951;50.818;4.344;2024-01-30T11:45:34;11.60;99.90
34726;DHT22;20951;50.818;4.344;2024-01-30T11:48:01;11.60;99.90
34726;DHT22;20951;50.818;4.344;2024-01-30T11:50:37;11.60;99.90
34726;DHT22;20951;50.818;4.344;2024-01-30T11:53:04;11.70;99.90
34726;DHT22;20951;50.818;4.344;2024-01-30T11:55:30;11.70;99.90
34726;DHT22;20951;50.818;4.344;2024-01-30T11:58:00;11.80;99.90
34726;DHT22;20951;50.818;4.344;2024-01-30T12:00:26;12.00;99.90
34726;DHT22;20951;50.818;4.344;2024-01-30T12:02:55;12.00;99.90
34726;DHT22;20951;50.818;4.344;2024-01-30T12:05:25;11.80;99.90
34726;DHT22;20951;50.818;4.344;2024-01-30T12:07:51;11.80;99.90
34726;DHT22;20951;50.818;4.344;2024-01-30T12:10:17;11.80;99.90
34726;DHT22;20951;50.818;4.344;2024-01-30T12:12:46;11.70;99.90
34726;DHT22;20951;50.818;4.344;2024-01-30T12:15:13;11.50;99.90
34726;DHT22;20951;50.818;4.344;2024-01-30T12:17:39;11.60;99.90
34726;DHT22;20951;50.818;4.344;2024-01-30T12:20:19;11.60;99.90
34726;DHT22;20951;50.818;4.344;2024-01-30T12:22:47;11.40;99.90
34726;DHT22;20951;50.818;4.344;2024-01-30T12:25:14;11.30;99.90
34726;DHT22;20951;50.818;4.344;2024-01-30T12:27:43;11.40;99.90
34726;DHT22;20951;50.818;4.344;2024-01-30T12:30:11;11.50;99.90
34726;DHT22;20951;50.818;4.344;2024-01-30T12:32:45;11.60;99.90
34726;DHT22;20951;50.818;4.344;2024-01-30T12:35:15;11.80;99.90
34726;DHT22;20951;50.818;4.344;2024-01-30T12:37:41;12.20;99.90
34726;DHT22;20951;50.818;4.344;2024-01-30T12:40:08;12.50;99.90
34726;DHT22;20951;50.818;4.344;2024-01-30T12:42:35;12.20;99.90
34726;DHT22;20951;50.818;4.344;2024-01-30T12:45:03;11.90;99.90
34726;DHT22;20951;50.818;4.344;2024-01-30T12:47:29;11.60;99.90
34726;DHT22;20951;50.818;4.344;2024-01-30T12:49:55;11.60;99.90
34726;DHT22;20951;50.818;4.344;2024-01-30T12:52:22;11.40;99.90
34726;DHT22;20951;50.818;4.344;2024-01-30T12:54:48;11.30;99.90
34726;DHT22;20951;50.818;4.344;2024-01-30T12:57:14;11.50;99.90
34726;DHT22;20951;50.818;4.344;2024-01-30T12:59:40;11.40;99.90
34726;DHT22;20951;50.818;4.344;2024-01-30T13:02:07;11.20;99.90
34726;DHT22;20951;50.818;4.344;2024-01-30T13:04:33;11.20;99.90
34726;DHT22;20951;50.818;4.344;2024-01-30T13:06:58;11.00;99.90
34726;DHT22;20951;50.818;4.344;2024-01-30T13:09:27;11.00;99.90
34726;DHT22;20951;50.818;4.344;2024-01-30T13:11:53;11.10;99.90
34726;DHT22;20951;50.818;4.344;2024-01-30T13:14:19;11.30;99.90
34726;DHT22;20951;50.818;4.344;2024-01-30T13:16:45;11.40;99.90
34726;DHT22;20951;50.818;4.344;2024-01-30T13:19:11;11.60;99.90
34726;DHT22;20951;50.818;4.344;2024-01-30T13:21:37;11.60;99.90
34726;DHT22;20951;50.818;4.344;2024-01-30T13:24:03;11.60;99.90
34726;DHT22;20951;50.818;4.344;2024-01-30T13:26:29;11.60;99.90
34726;DHT22;20951;50.818;4.344;2024-01-30T13:28:57;11.50;99.90
34726;DHT22;20951;50.818;4.344;2024-01-30T13:31:23;11.60;99.90
34726;DHT22;20951;50.818;4.344;2024-01-30T13:33:51;11.90;99.90
34726;DHT22;20951;50.818;4.344;2024-01-30T13:36:17;12.00;99.90
34726;DHT22;20951;50.818;4.344;2024-01-30T13:38:43;12.00;99.90
34726;DHT22;20951;50.818;4.344;2024-01-30T13:41:09;11.60;99.90
34726;DHT22;20951;50.818;4.344;2024-01-30T13:43:34;11.60;99.90
34726;DHT22;20951;50.818;4.344;2024-01-30T13:46:00;11.40;99.90
34726;DHT22;20951;50.818;4.344;2024-01-30T13:48:26;11.40;99.90
34726;DHT22;20951;50.818;4.344;2024-01-30T13:50:53;11.30;99.90
34726;DHT22;20951;50.818;4.344;2024-01-30T13:53:19;11.50;99.90
34726;DHT22;20951;50.818;4.344;2024-01-30T13:55:45;11.40;99.90
34726;DHT22;20951;50.818;4.344;2024-01-30T13:58:10;11.50;99.90
34726;DHT22;20951;50.818;4.344;2024-01-30T14:00:38;11.50;99.90
34726;DHT22;20951;50.818;4.344;2024-01-30T14:03:04;11.50;99.90
34726;DHT22;20951;50.818;4.344;2024-01-30T14:05:30;11.50;99.90
34726;DHT22;20951;50.818;4.344;2024-01-30T14:07:57;11.50;99.90
34726;DHT22;20951;50.818;4.344;2024-01-30T14:10:24;11.40;99.90
34726;DHT22;20951;50.818;4.344;2024-01-30T14:12:50;11.60;99.90
34726;DHT22;20951;50.818;4.344;2024-01-30T14:15:16;11.30;99.90
34726;DHT22;20951;50.818;4.344;2024-01-30T14:17:45;11.10;99.90
34726;DHT22;20951;50.818;4.344;2024-01-30T14:20:13;11.10;99.90
34726;DHT22;20951;50.818;4.344;2024-01-30T14:22:39;11.20;99.90
34726;DHT22;20951;50.818;4.344;2024-01-30T14:25:05;11.30;99.90
34726;DHT22;20951;50.818;4.344;2024-01-30T14:27:31;11.30;99.90
34726;DHT22;20951;50.818;4.344;2024-01-30T14:29:57;11.20;99.90
34726;DHT22;20951;50.818;4.344;2024-01-30T14:32:23;11.30;99.90
34726;DHT22;20951;50.818;4.344;2024-01-30T14:34:50;11.10;99.90
34726;DHT22;20951;50.818;4.344;2024-01-30T14:37:16;11.00;99.90
34726;DHT22;20951;50.818;4.344;2024-01-30T14:39:43;11.20;99.90
34726;DHT22;20951;50.818;4.344;2024-01-30T14:42:09;11.20;99.90
34726;DHT22;20951;50.818;4.344;2024-01-30T14:44:35;11.30;99.90
34726;DHT22;20951;50.818;4.344;2024-01-30T14:47:01;11.50;99.90
34726;DHT22;20951;50.818;4.344;2024-01-30T14:49:27;11.50;99.90
34726;DHT22;20951;50.818;4.344;2024-01-30T14:51:53;11.50;99.90
34726;DHT22;20951;50.818;4.344;2024-01-30T14:54:19;11.50;99.90
34726;DHT22;20951;50.818;4.344;2024-01-30T14:56:45;11.30;99.90
34726;DHT22;20951;50.818;4.344;2024-01-30T14:59:12;11.20;99.90
34726;DHT22;20951;50.818;4.344;2024-01-30T15:01:39;11.20;99.90
34726;DHT22;20951;50.818;4.344;2024-01-30T15:04:04;11.10;99.90
34726;DHT22;20951;50.818;4.344;2024-01-30T15:06:30;11.10;99.90
34726;DHT22;20951;50.818;4.344;2024-01-30T15:08:56;11.00;99.90
34726;DHT22;20951;50.818;4.344;2024-01-30T15:11:22;10.90;99.90
34726;DHT22;20951;50.818;4.344;2024-01-30T15:13:48;10.90;99.90
34726;DHT22;20951;50.818;4.344;2024-01-30T15:16:14;10.90;99.90
34726;DHT22;20951;50.818;4.344;2024-01-30T15:18:40;10.90;99.90
34726;DHT22;20951;50.818;4.344;2024-01-30T15:21:05;10.80;99.90
34726;DHT22;20951;50.818;4.344;2024-01-30T15:23:31;10.90;99.90
34726;DHT22;20951;50.818;4.344;2024-01-30T15:25:57;10.90;99.90
34726;DHT22;20951;50.818;4.344;2024-01-30T15:28:36;10.90;99.90
34726;DHT22;20951;50.818;4.344;2024-01-30T15:31:03;10.80;99.90
34726;DHT22;20951;50.818;4.344;2024-01-30T15:33:29;10.80;99.90